sensor_id;sensor_type;location;lat;lon;timestamp;P1;durP1;ratioP1;P2;durP2;ratioP2
13685;SDS011;6915;48.296;8.874;2022-08-01T00:01:56;2.58;;;1.95;;
13685;SDS011;6915;48.296;8.874;2022-08-01T00:04:23;1.92;;;1.60;;
13685;SDS011;6915;48.296;8.874;2022-08-01T00:06:50;1.88;;;1.30;;
13685;SDS011;6915;48.296;8.874;2022-08-01T00:09:16;2.65;;;1.70;;
13685;SDS011;6915;48.296;8.874;2022-08-01T00:11:43;1.60;;;1.50;;
13685;SDS011;6915;48.296;8.874;2022-08-01T00:14:12;1.95;;;1.45;;
13685;SDS011;6915;48.296;8.874;2022-08-01T00:16:39;1.90;;;1.70;;
13685;SDS011;6915;48.296;8.874;2022-08-01T00:19:05;3.05;;;1.58;;
13685;SDS011;6915;48.296;8.874;2022-08-01T00:21:32;2.47;;;1.73;;
13685;SDS011;6915;48.296;8.874;2022-08-01T00:23:59;1.67;;;1.58;;
13685;SDS011;6915;48.296;8.874;2022-08-01T00:26:26;1.77;;;1.55;;
13685;SDS011;6915;48.296;8.874;2022-08-01T00:28:53;2.45;;;1.77;;
13685;SDS011;6915;48.296;8.874;2022-08-01T00:31:21;1.65;;;1.55;;
13685;SDS011;6915;48.296;8.874;2022-08-01T00:33:48;2.22;;;1.65;;
13685;SDS011;6915;48.296;8.874;2022-08-01T00:36:15;1.83;;;1.73;;
13685;SDS011;6915;48.296;8.874;2022-08-01T00:38:42;2.00;;;1.75;;
13685;SDS011;6915;48.296;8.874;2022-08-01T00:41:09;2.00;;;1.80;;
13685;SDS011;6915;48.296;8.874;2022-08-01T00:43:36;1.80;;;1.70;;
13685;SDS011;6915;48.296;8.874;2022-08-01T00:46:03;2.42;;;1.92;;
13685;SDS011;6915;48.296;8.874;2022-08-01T00:48:31;2.03;;;1.77;;
13685;SDS011;6915;48.296;8.874;2022-08-01T00:50:58;4.40;;;2.00;;
13685;SDS011;6915;48.296;8.874;2022-08-01T00:53:25;2.20;;;2.00;;
13685;SDS011;6915;48.296;8.874;2022-08-01T00:55:52;2.50;;;1.40;;
13685;SDS011;6915;48.296;8.874;2022-08-01T00:58:19;2.75;;;1.80;;
13685;SDS011;6915;48.296;8.874;2022-08-01T01:00:46;1.70;;;1.60;;
13685;SDS011;6915;48.296;8.874;2022-08-01T01:03:13;1.90;;;1.80;;
13685;SDS011;6915;48.296;8.874;2022-08-01T01:05:44;3.20;;;1.60;;
13685;SDS011;6915;48.296;8.874;2022-08-01T01:08:32;2.30;;;1.70;;
13685;SDS011;6915;48.296;8.874;2022-08-01T01:11:05;1.77;;;1.67;;
13685;SDS011;6915;48.296;8.874;2022-08-01T01:13:38;1.65;;;1.52;;
13685;SDS011;6915;48.296;8.874;2022-08-01T01:16:10;2.67;;;1.50;;
13685;SDS011;6915;48.296;8.874;2022-08-01T01:18:42;4.60;;;1.63;;
13685;SDS011;6915;48.296;8.874;2022-08-01T01:24:21;1.85;;;1.67;;
13685;SDS011;6915;48.296;8.874;2022-08-01T01:26:59;4.28;;;1.63;;
13685;SDS011;6915;48.296;8.874;2022-08-01T01:29:35;1.80;;;1.70;;
13685;SDS011;6915;48.296;8.874;2022-08-01T01:32:09;1.98;;;1.85;;
13685;SDS011;6915;48.296;8.874;2022-08-01T01:34:42;1.63;;;1.53;;
13685;SDS011;6915;48.296;8.874;2022-08-01T01:37:12;2.13;;;1.80;;
13685;SDS011;6915;48.296;8.874;2022-08-01T01:39:41;2.10;;;2.00;;
13685;SDS011;6915;48.296;8.874;2022-08-01T01:42:10;2.20;;;2.10;;
13685;SDS011;6915;48.296;8.874;2022-08-01T01:44:38;2.80;;;2.00;;
13685;SDS011;6915;48.296;8.874;2022-08-01T01:47:06;2.30;;;2.10;;
13685;SDS011;6915;48.296;8.874;2022-08-01T01:49:34;1.70;;;1.60;;
13685;SDS011;6915;48.296;8.874;2022-08-01T01:52:01;2.20;;;2.00;;
13685;SDS011;6915;48.296;8.874;2022-08-01T01:54:30;2.67;;;1.90;;
13685;SDS011;6915;48.296;8.874;2022-08-01T01:57:01;1.80;;;1.70;;
13685;SDS011;6915;48.296;8.874;2022-08-01T01:59:31;1.73;;;1.63;;
13685;SDS011;6915;48.296;8.874;2022-08-01T02:02:03;2.37;;;2.00;;
13685;SDS011;6915;48.296;8.874;2022-08-01T02:04:31;1.77;;;1.67;;
13685;SDS011;6915;48.296;8.874;2022-08-01T02:06:59;1.97;;;1.83;;
13685;SDS011;6915;48.296;8.874;2022-08-01T02:09:28;3.57;;;2.10;;
13685;SDS011;6915;48.296;8.874;2022-08-01T02:11:56;1.97;;;1.83;;
13685;SDS011;6915;48.296;8.874;2022-08-01T02:14:25;2.07;;;1.97;;
13685;SDS011;6915;48.296;8.874;2022-08-01T02:16:54;2.13;;;2.00;;
13685;SDS011;6915;48.296;8.874;2022-08-01T02:19:26;2.13;;;1.93;;
13685;SDS011;6915;48.296;8.874;2022-08-01T02:21:55;2.13;;;1.93;;
13685;SDS011;6915;48.296;8.874;2022-08-01T02:24:27;2.80;;;1.90;;
13685;SDS011;6915;48.296;8.874;2022-08-01T02:26:59;2.87;;;2.00;;
13685;SDS011;6915;48.296;8.874;2022-08-01T02:29:31;2.40;;;2.20;;
13685;SDS011;6915;48.296;8.874;2022-08-01T02:32:03;2.63;;;2.17;;
13685;SDS011;6915;48.296;8.874;2022-08-01T02:34:33;2.30;;;2.10;;
13685;SDS011;6915;48.296;8.874;2022-08-01T02:37:01;2.13;;;1.90;;
13685;SDS011;6915;48.296;8.874;2022-08-01T02:39:31;1.90;;;1.80;;
13685;SDS011;6915;48.296;8.874;2022-08-01T02:42:02;2.00;;;1.90;;
13685;SDS011;6915;48.296;8.874;2022-08-01T02:44:32;1.87;;;1.77;;
13685;SDS011;6915;48.296;8.874;2022-08-01T02:47:03;1.97;;;1.87;;
13685;SDS011;6915;48.296;8.874;2022-08-01T02:49:31;1.90;;;1.80;;
13685;SDS011;6915;48.296;8.874;2022-08-01T02:52:01;3.63;;;2.00;;
13685;SDS011;6915;48.296;8.874;2022-08-01T02:54:32;2.00;;;1.90;;
13685;SDS011;6915;48.296;8.874;2022-08-01T02:57:01;2.17;;;1.90;;
13685;SDS011;6915;48.296;8.874;2022-08-01T02:59:30;3.00;;;2.07;;
13685;SDS011;6915;48.296;8.874;2022-08-01T03:01:59;2.10;;;2.00;;
13685;SDS011;6915;48.296;8.874;2022-08-01T03:04:27;2.70;;;2.00;;
13685;SDS011;6915;48.296;8.874;2022-08-01T03:06:56;1.93;;;1.83;;
13685;SDS011;6915;48.296;8.874;2022-08-01T03:09:25;2.07;;;1.97;;
13685;SDS011;6915;48.296;8.874;2022-08-01T03:11:53;2.10;;;2.00;;
13685;SDS011;6915;48.296;8.874;2022-08-01T03:14:24;3.30;;;1.90;;
13685;SDS011;6915;48.296;8.874;2022-08-01T03:16:52;2.50;;;2.30;;
13685;SDS011;6915;48.296;8.874;2022-08-01T03:19:21;2.53;;;2.33;;
13685;SDS011;6915;48.296;8.874;2022-08-01T03:21:52;2.20;;;2.00;;
13685;SDS011;6915;48.296;8.874;2022-08-01T03:24:24;2.83;;;2.00;;
13685;SDS011;6915;48.296;8.874;2022-08-01T03:26:53;2.47;;;2.17;;
13685;SDS011;6915;48.296;8.874;2022-08-01T03:29:23;2.57;;;2.37;;
13685;SDS011;6915;48.296;8.874;2022-08-01T03:31:51;2.40;;;2.20;;
13685;SDS011;6915;48.296;8.874;2022-08-01T03:34:20;2.63;;;2.40;;
13685;SDS011;6915;48.296;8.874;2022-08-01T03:36:48;2.77;;;2.57;;
13685;SDS011;6915;48.296;8.874;2022-08-01T03:39:19;2.73;;;2.33;;
13685;SDS011;6915;48.296;8.874;2022-08-01T03:41:51;2.43;;;2.33;;
13685;SDS011;6915;48.296;8.874;2022-08-01T03:44:22;2.60;;;2.50;;
13685;SDS011;6915;48.296;8.874;2022-08-01T03:46:54;2.80;;;2.60;;
13685;SDS011;6915;48.296;8.874;2022-08-01T03:49:26;2.63;;;2.50;;
13685;SDS011;6915;48.296;8.874;2022-08-01T03:51:56;2.60;;;2.40;;
13685;SDS011;6915;48.296;8.874;2022-08-01T03:54:25;2.73;;;2.53;;
13685;SDS011;6915;48.296;8.874;2022-08-01T03:56:59;2.57;;;2.37;;
13685;SDS011;6915;48.296;8.874;2022-08-01T03:59:27;3.00;;;2.50;;
13685;SDS011;6915;48.296;8.874;2022-08-01T04:01:55;2.77;;;2.53;;
13685;SDS011;6915;48.296;8.874;2022-08-01T04:04:23;2.77;;;2.57;;
13685;SDS011;6915;48.296;8.874;2022-08-01T04:06:51;2.70;;;2.50;;
13685;SDS011;6915;48.296;8.874;2022-08-01T04:09:19;2.80;;;2.60;;
13685;SDS011;6915;48.296;8.874;2022-08-01T04:11:46;2.70;;;2.50;;
13685;SDS011;6915;48.296;8.874;2022-08-01T04:14:15;3.00;;;2.67;;
13685;SDS011;6915;48.296;8.874;2022-08-01T04:16:42;2.80;;;2.60;;
13685;SDS011;6915;48.296;8.874;2022-08-01T04:19:09;2.80;;;2.50;;
13685;SDS011;6915;48.296;8.874;2022-08-01T04:21:36;3.13;;;2.50;;
13685;SDS011;6915;48.296;8.874;2022-08-01T04:24:05;2.90;;;2.70;;
13685;SDS011;6915;48.296;8.874;2022-08-01T04:26:36;3.10;;;2.60;;
13685;SDS011;6915;48.296;8.874;2022-08-01T04:29:05;2.60;;;2.40;;
13685;SDS011;6915;48.296;8.874;2022-08-01T04:31:35;8.27;;;2.90;;
13685;SDS011;6915;48.296;8.874;2022-08-01T04:34:05;3.13;;;2.37;;
13685;SDS011;6915;48.296;8.874;2022-08-01T04:36:35;3.23;;;2.93;;
13685;SDS011;6915;48.296;8.874;2022-08-01T04:39:06;3.10;;;2.60;;
13685;SDS011;6915;48.296;8.874;2022-08-01T04:41:35;2.50;;;2.30;;
13685;SDS011;6915;48.296;8.874;2022-08-01T04:44:03;2.33;;;2.23;;
13685;SDS011;6915;48.296;8.874;2022-08-01T04:46:31;2.85;;;2.63;;
13685;SDS011;6915;48.296;8.874;2022-08-01T04:49:03;2.15;;;2.05;;
13685;SDS011;6915;48.296;8.874;2022-08-01T04:51:32;2.92;;;2.22;;
13685;SDS011;6915;48.296;8.874;2022-08-01T04:53:59;2.20;;;2.00;;
13685;SDS011;6915;48.296;8.874;2022-08-01T04:56:27;2.00;;;1.90;;
13685;SDS011;6915;48.296;8.874;2022-08-01T04:58:53;2.53;;;2.00;;
13685;SDS011;6915;48.296;8.874;2022-08-01T05:01:34;2.35;;;2.25;;
13685;SDS011;6915;48.296;8.874;2022-08-01T05:04:02;2.40;;;2.20;;
13685;SDS011;6915;48.296;8.874;2022-08-01T05:06:29;3.20;;;2.10;;
13685;SDS011;6915;48.296;8.874;2022-08-01T05:08:56;3.30;;;2.13;;
13685;SDS011;6915;48.296;8.874;2022-08-01T05:11:23;2.45;;;2.00;;
13685;SDS011;6915;48.296;8.874;2022-08-01T05:13:50;2.42;;;2.30;;
13685;SDS011;6915;48.296;8.874;2022-08-01T05:16:17;2.60;;;2.40;;
13685;SDS011;6915;48.296;8.874;2022-08-01T05:18:44;2.80;;;2.35;;
13685;SDS011;6915;48.296;8.874;2022-08-01T05:21:12;2.42;;;2.17;;
13685;SDS011;6915;48.296;8.874;2022-08-01T05:23:39;2.35;;;2.22;;
13685;SDS011;6915;48.296;8.874;2022-08-01T05:26:07;4.75;;;2.40;;
13685;SDS011;6915;48.296;8.874;2022-08-01T05:28:34;2.20;;;2.10;;
13685;SDS011;6915;48.296;8.874;2022-08-01T05:31:01;3.70;;;2.28;;
13685;SDS011;6915;48.296;8.874;2022-08-01T05:33:28;2.92;;;2.35;;
13685;SDS011;6915;48.296;8.874;2022-08-01T05:35:55;4.82;;;2.50;;
13685;SDS011;6915;48.296;8.874;2022-08-01T05:38:24;2.47;;;2.13;;
13685;SDS011;6915;48.296;8.874;2022-08-01T05:40:51;2.50;;;2.30;;
13685;SDS011;6915;48.296;8.874;2022-08-01T05:43:18;2.60;;;2.40;;
13685;SDS011;6915;48.296;8.874;2022-08-01T05:45:45;4.68;;;2.45;;
13685;SDS011;6915;48.296;8.874;2022-08-01T05:48:12;2.35;;;2.15;;
13685;SDS011;6915;48.296;8.874;2022-08-01T05:50:39;2.38;;;2.17;;
13685;SDS011;6915;48.296;8.874;2022-08-01T05:53:06;2.10;;;1.98;;
13685;SDS011;6915;48.296;8.874;2022-08-01T05:55:35;2.83;;;2.30;;
13685;SDS011;6915;48.296;8.874;2022-08-01T05:58:02;2.50;;;2.33;;
13685;SDS011;6915;48.296;8.874;2022-08-01T06:00:29;3.38;;;2.55;;
13685;SDS011;6915;48.296;8.874;2022-08-01T06:02:56;3.00;;;2.40;;
13685;SDS011;6915;48.296;8.874;2022-08-01T06:05:23;3.33;;;2.20;;
13685;SDS011;6915;48.296;8.874;2022-08-01T06:07:50;2.30;;;2.20;;
13685;SDS011;6915;48.296;8.874;2022-08-01T06:10:17;2.50;;;2.30;;
13685;SDS011;6915;48.296;8.874;2022-08-01T06:12:46;4.80;;;2.78;;
13685;SDS011;6915;48.296;8.874;2022-08-01T06:15:13;2.58;;;2.38;;
13685;SDS011;6915;48.296;8.874;2022-08-01T06:17:40;2.72;;;2.40;;
13685;SDS011;6915;48.296;8.874;2022-08-01T06:20:07;3.20;;;2.42;;
13685;SDS011;6915;48.296;8.874;2022-08-01T06:22:35;2.67;;;2.47;;
13685;SDS011;6915;48.296;8.874;2022-08-01T06:25:03;3.05;;;2.30;;
13685;SDS011;6915;48.296;8.874;2022-08-01T06:27:30;2.72;;;2.45;;
13685;SDS011;6915;48.296;8.874;2022-08-01T06:30:01;3.38;;;2.67;;
13685;SDS011;6915;48.296;8.874;2022-08-01T06:32:29;2.60;;;2.40;;
13685;SDS011;6915;48.296;8.874;2022-08-01T06:34:56;3.30;;;2.40;;
13685;SDS011;6915;48.296;8.874;2022-08-01T06:37:23;2.60;;;2.40;;
13685;SDS011;6915;48.296;8.874;2022-08-01T06:39:54;3.20;;;2.40;;
13685;SDS011;6915;48.296;8.874;2022-08-01T06:42:21;2.47;;;2.28;;
13685;SDS011;6915;48.296;8.874;2022-08-01T06:44:49;2.60;;;2.40;;
13685;SDS011;6915;48.296;8.874;2022-08-01T06:47:17;3.75;;;1.67;;
13685;SDS011;6915;48.296;8.874;2022-08-01T06:49:44;5.00;;;2.00;;
13685;SDS011;6915;48.296;8.874;2022-08-01T06:52:11;3.47;;;1.88;;
13685;SDS011;6915;48.296;8.874;2022-08-01T06:54:38;2.50;;;1.98;;
13685;SDS011;6915;48.296;8.874;2022-08-01T06:57:05;1.80;;;1.70;;
13685;SDS011;6915;48.296;8.874;2022-08-01T06:59:32;2.80;;;1.60;;
13685;SDS011;6915;48.296;8.874;2022-08-01T07:01:59;2.30;;;1.70;;
13685;SDS011;6915;48.296;8.874;2022-08-01T07:04:28;2.33;;;1.85;;
13685;SDS011;6915;48.296;8.874;2022-08-01T07:06:55;1.95;;;1.85;;
13685;SDS011;6915;48.296;8.874;2022-08-01T07:09:24;1.80;;;1.70;;
13685;SDS011;6915;48.296;8.874;2022-08-01T07:11:52;2.20;;;1.55;;
13685;SDS011;6915;48.296;8.874;2022-08-01T07:14:20;2.08;;;1.88;;
13685;SDS011;6915;48.296;8.874;2022-08-01T07:16:48;1.80;;;1.70;;
13685;SDS011;6915;48.296;8.874;2022-08-01T07:19:15;2.05;;;1.85;;
13685;SDS011;6915;48.296;8.874;2022-08-01T07:21:44;2.00;;;1.90;;
13685;SDS011;6915;48.296;8.874;2022-08-01T07:24:11;3.05;;;2.75;;
13685;SDS011;6915;48.296;8.874;2022-08-01T07:26:40;2.55;;;2.33;;
13685;SDS011;6915;48.296;8.874;2022-08-01T07:29:08;2.65;;;2.45;;
13685;SDS011;6915;48.296;8.874;2022-08-01T07:31:35;2.92;;;2.50;;
13685;SDS011;6915;48.296;8.874;2022-08-01T07:34:02;2.80;;;2.60;;
13685;SDS011;6915;48.296;8.874;2022-08-01T07:36:29;2.70;;;2.50;;
13685;SDS011;6915;48.296;8.874;2022-08-01T07:38:57;2.63;;;2.42;;
13685;SDS011;6915;48.296;8.874;2022-08-01T07:41:24;5.75;;;2.70;;
13685;SDS011;6915;48.296;8.874;2022-08-01T07:43:51;2.75;;;2.42;;
13685;SDS011;6915;48.296;8.874;2022-08-01T07:46:18;3.00;;;2.72;;
13685;SDS011;6915;48.296;8.874;2022-08-01T07:48:45;2.78;;;2.58;;
13685;SDS011;6915;48.296;8.874;2022-08-01T07:51:12;2.60;;;2.40;;
13685;SDS011;6915;48.296;8.874;2022-08-01T07:53:39;6.00;;;2.88;;
13685;SDS011;6915;48.296;8.874;2022-08-01T07:56:07;2.78;;;2.58;;
13685;SDS011;6915;48.296;8.874;2022-08-01T07:58:34;2.58;;;2.38;;
13685;SDS011;6915;48.296;8.874;2022-08-01T08:01:01;2.70;;;2.50;;
13685;SDS011;6915;48.296;8.874;2022-08-01T08:03:29;4.95;;;2.65;;
13685;SDS011;6915;48.296;8.874;2022-08-01T08:05:56;2.90;;;2.55;;
13685;SDS011;6915;48.296;8.874;2022-08-01T08:08:23;2.70;;;2.50;;
13685;SDS011;6915;48.296;8.874;2022-08-01T08:10:50;3.30;;;3.10;;
13685;SDS011;6915;48.296;8.874;2022-08-01T08:13:18;2.80;;;2.60;;
13685;SDS011;6915;48.296;8.874;2022-08-01T08:15:45;2.60;;;2.50;;
13685;SDS011;6915;48.296;8.874;2022-08-01T08:18:12;3.10;;;2.90;;
13685;SDS011;6915;48.296;8.874;2022-08-01T08:20:39;3.35;;;3.08;;
13685;SDS011;6915;48.296;8.874;2022-08-01T08:23:06;3.00;;;2.72;;
13685;SDS011;6915;48.296;8.874;2022-08-01T08:25:47;3.47;;;2.90;;
13685;SDS011;6915;48.296;8.874;2022-08-01T08:28:14;3.13;;;2.90;;
13685;SDS011;6915;48.296;8.874;2022-08-01T08:30:42;3.08;;;2.75;;
13685;SDS011;6915;48.296;8.874;2022-08-01T08:33:09;3.28;;;3.08;;
13685;SDS011;6915;48.296;8.874;2022-08-01T08:35:38;3.08;;;2.88;;
13685;SDS011;6915;48.296;8.874;2022-08-01T08:38:06;3.75;;;2.85;;
13685;SDS011;6915;48.296;8.874;2022-08-01T08:40:35;2.88;;;2.60;;
13685;SDS011;6915;48.296;8.874;2022-08-01T08:43:03;4.10;;;3.08;;
13685;SDS011;6915;48.296;8.874;2022-08-01T08:45:31;3.22;;;2.97;;
13685;SDS011;6915;48.296;8.874;2022-08-01T08:48:00;4.05;;;2.97;;
13685;SDS011;6915;48.296;8.874;2022-08-01T08:50:27;3.55;;;3.20;;
13685;SDS011;6915;48.296;8.874;2022-08-01T08:52:55;3.13;;;2.85;;
13685;SDS011;6915;48.296;8.874;2022-08-01T08:55:24;3.30;;;3.10;;
13685;SDS011;6915;48.296;8.874;2022-08-01T08:57:53;3.35;;;3.05;;
13685;SDS011;6915;48.296;8.874;2022-08-01T09:00:21;3.10;;;2.90;;
13685;SDS011;6915;48.296;8.874;2022-08-01T09:02:48;4.75;;;2.95;;
13685;SDS011;6915;48.296;8.874;2022-08-01T09:05:18;3.60;;;3.30;;
13685;SDS011;6915;48.296;8.874;2022-08-01T09:07:50;3.10;;;2.90;;
13685;SDS011;6915;48.296;8.874;2022-08-01T09:10:17;3.40;;;3.10;;
13685;SDS011;6915;48.296;8.874;2022-08-01T09:13:04;3.05;;;2.85;;
13685;SDS011;6915;48.296;8.874;2022-08-01T09:15:42;3.08;;;2.88;;
13685;SDS011;6915;48.296;8.874;2022-08-01T09:18:31;2.78;;;2.65;;
13685;SDS011;6915;48.296;8.874;2022-08-01T09:21:11;3.05;;;2.85;;
13685;SDS011;6915;48.296;8.874;2022-08-01T09:23:42;4.00;;;2.90;;
13685;SDS011;6915;48.296;8.874;2022-08-01T09:26:11;2.97;;;2.67;;
13685;SDS011;6915;48.296;8.874;2022-08-01T09:28:39;3.08;;;2.40;;
13685;SDS011;6915;48.296;8.874;2022-08-01T09:31:08;3.20;;;2.90;;
13685;SDS011;6915;48.296;8.874;2022-08-01T09:33:52;3.08;;;2.80;;
13685;SDS011;6915;48.296;8.874;2022-08-01T09:36:23;2.97;;;2.75;;
13685;SDS011;6915;48.296;8.874;2022-08-01T09:38:52;3.08;;;2.63;;
13685;SDS011;6915;48.296;8.874;2022-08-01T09:41:28;2.97;;;2.67;;
13685;SDS011;6915;48.296;8.874;2022-08-01T09:43:57;2.55;;;2.40;;
13685;SDS011;6915;48.296;8.874;2022-08-01T09:46:24;2.80;;;2.60;;
13685;SDS011;6915;48.296;8.874;2022-08-01T09:48:55;3.85;;;2.50;;
13685;SDS011;6915;48.296;8.874;2022-08-01T09:51:34;3.13;;;2.78;;
13685;SDS011;6915;48.296;8.874;2022-08-01T09:54:04;2.90;;;2.70;;
13685;SDS011;6915;48.296;8.874;2022-08-01T09:56:37;2.30;;;2.20;;
13685;SDS011;6915;48.296;8.874;2022-08-01T09:59:05;2.92;;;2.67;;
13685;SDS011;6915;48.296;8.874;2022-08-01T10:01:42;2.40;;;2.30;;
13685;SDS011;6915;48.296;8.874;2022-08-01T10:04:11;2.38;;;2.22;;
13685;SDS011;6915;48.296;8.874;2022-08-01T10:06:41;2.58;;;2.33;;
13685;SDS011;6915;48.296;8.874;2022-08-01T10:09:09;4.55;;;2.53;;
13685;SDS011;6915;48.296;8.874;2022-08-01T10:11:38;2.75;;;2.47;;
13685;SDS011;6915;48.296;8.874;2022-08-01T10:14:07;3.40;;;2.20;;
13685;SDS011;6915;48.296;8.874;2022-08-01T10:16:35;2.55;;;2.35;;
13685;SDS011;6915;48.296;8.874;2022-08-01T10:19:03;2.83;;;2.30;;
13685;SDS011;6915;48.296;8.874;2022-08-01T10:21:33;2.55;;;2.35;;
13685;SDS011;6915;48.296;8.874;2022-08-01T10:24:02;2.15;;;2.05;;
13685;SDS011;6915;48.296;8.874;2022-08-01T10:26:32;2.22;;;2.03;;
13685;SDS011;6915;48.296;8.874;2022-08-01T10:29:00;3.03;;;2.30;;
13685;SDS011;6915;48.296;8.874;2022-08-01T10:31:29;2.60;;;2.40;;
13685;SDS011;6915;48.296;8.874;2022-08-01T10:33:58;2.60;;;2.42;;
13685;SDS011;6915;48.296;8.874;2022-08-01T10:36:26;2.45;;;2.10;;
13685;SDS011;6915;48.296;8.874;2022-08-01T10:38:53;2.20;;;2.10;;
13685;SDS011;6915;48.296;8.874;2022-08-01T10:41:22;2.35;;;2.25;;
13685;SDS011;6915;48.296;8.874;2022-08-01T10:43:51;2.58;;;2.08;;
13685;SDS011;6915;48.296;8.874;2022-08-01T10:46:19;2.33;;;2.13;;
13685;SDS011;6915;48.296;8.874;2022-08-01T10:48:49;2.22;;;2.03;;
13685;SDS011;6915;48.296;8.874;2022-08-01T10:51:21;2.15;;;2.03;;
13685;SDS011;6915;48.296;8.874;2022-08-01T10:53:50;1.98;;;1.88;;
13685;SDS011;6915;48.296;8.874;2022-08-01T10:56:18;2.30;;;2.00;;
13685;SDS011;6915;48.296;8.874;2022-08-01T10:58:47;2.10;;;1.92;;
13685;SDS011;6915;48.296;8.874;2022-08-01T11:01:15;2.05;;;1.95;;
13685;SDS011;6915;48.296;8.874;2022-08-01T11:03:55;1.85;;;1.75;;
13685;SDS011;6915;48.296;8.874;2022-08-01T11:06:39;2.22;;;2.03;;
13685;SDS011;6915;48.296;8.874;2022-08-01T11:09:26;1.90;;;1.80;;
13685;SDS011;6915;48.296;8.874;2022-08-01T11:12:03;1.80;;;1.70;;
13685;SDS011;6915;48.296;8.874;2022-08-01T11:15:15;2.10;;;1.73;;
13685;SDS011;6915;48.296;8.874;2022-08-01T11:17:41;2.80;;;1.77;;
13685;SDS011;6915;48.296;8.874;2022-08-01T11:20:13;2.05;;;1.83;;
13685;SDS011;6915;48.296;8.874;2022-08-01T11:26:13;1.90;;;1.80;;
13685;SDS011;6915;48.296;8.874;2022-08-01T11:28:42;1.65;;;1.52;;
13685;SDS011;6915;48.296;8.874;2022-08-01T11:31:27;1.92;;;1.80;;
13685;SDS011;6915;48.296;8.874;2022-08-01T11:33:55;1.40;;;1.30;;
13685;SDS011;6915;48.296;8.874;2022-08-01T11:36:23;1.42;;;1.33;;
13685;SDS011;6915;48.296;8.874;2022-08-01T11:41:42;2.10;;;1.90;;
13685;SDS011;6915;48.296;8.874;2022-08-01T11:44:12;2.33;;;1.75;;
13685;SDS011;6915;48.296;8.874;2022-08-01T11:46:58;1.90;;;1.80;;
13685;SDS011;6915;48.296;8.874;2022-08-01T11:49:43;2.78;;;1.80;;
13685;SDS011;6915;48.296;8.874;2022-08-01T11:52:23;2.05;;;1.95;;
13685;SDS011;6915;48.296;8.874;2022-08-01T11:54:52;1.73;;;1.63;;
13685;SDS011;6915;48.296;8.874;2022-08-01T11:57:21;2.58;;;1.80;;
13685;SDS011;6915;48.296;8.874;2022-08-01T11:59:51;2.60;;;1.85;;
13685;SDS011;6915;48.296;8.874;2022-08-01T12:02:24;1.83;;;1.73;;
13685;SDS011;6915;48.296;8.874;2022-08-01T12:04:54;2.67;;;1.90;;
13685;SDS011;6915;48.296;8.874;2022-08-01T12:07:23;3.17;;;1.70;;
13685;SDS011;6915;48.296;8.874;2022-08-01T12:09:57;3.10;;;1.70;;
13685;SDS011;6915;48.296;8.874;2022-08-01T12:12:27;1.90;;;1.70;;
13685;SDS011;6915;48.296;8.874;2022-08-01T12:14:55;2.10;;;1.70;;
13685;SDS011;6915;48.296;8.874;2022-08-01T12:17:33;1.58;;;1.48;;
13685;SDS011;6915;48.296;8.874;2022-08-01T12:20:01;2.80;;;1.70;;
13685;SDS011;6915;48.296;8.874;2022-08-01T12:22:30;3.67;;;2.00;;
13685;SDS011;6915;48.296;8.874;2022-08-01T12:25:04;1.75;;;1.65;;
13685;SDS011;6915;48.296;8.874;2022-08-01T12:27:33;1.60;;;1.50;;
13685;SDS011;6915;48.296;8.874;2022-08-01T12:30:01;1.75;;;1.55;;
13685;SDS011;6915;48.296;8.874;2022-08-01T12:32:32;1.80;;;1.70;;
13685;SDS011;6915;48.296;8.874;2022-08-01T12:35:02;1.60;;;1.50;;
13685;SDS011;6915;48.296;8.874;2022-08-01T12:37:30;2.65;;;1.60;;
13685;SDS011;6915;48.296;8.874;2022-08-01T12:39:58;2.85;;;1.67;;
13685;SDS011;6915;48.296;8.874;2022-08-01T12:42:25;2.60;;;1.60;;
13685;SDS011;6915;48.296;8.874;2022-08-01T12:44:53;1.83;;;1.60;;
13685;SDS011;6915;48.296;8.874;2022-08-01T12:47:21;1.50;;;1.40;;
13685;SDS011;6915;48.296;8.874;2022-08-01T12:49:50;1.60;;;1.50;;
13685;SDS011;6915;48.296;8.874;2022-08-01T12:52:18;3.38;;;1.40;;
13685;SDS011;6915;48.296;8.874;2022-08-01T12:54:59;1.67;;;1.35;;
13685;SDS011;6915;48.296;8.874;2022-08-01T12:57:28;1.92;;;1.25;;
13685;SDS011;6915;48.296;8.874;2022-08-01T13:00:04;1.65;;;1.17;;
13685;SDS011;6915;48.296;8.874;2022-08-01T13:02:42;1.50;;;1.40;;
13685;SDS011;6915;48.296;8.874;2022-08-01T13:05:11;1.65;;;1.55;;
13685;SDS011;6915;48.296;8.874;2022-08-01T13:07:43;4.53;;;1.20;;
13685;SDS011;6915;48.296;8.874;2022-08-01T13:10:23;1.30;;;1.20;;
13685;SDS011;6915;48.296;8.874;2022-08-01T13:12:52;4.20;;;1.77;;
13685;SDS011;6915;48.296;8.874;2022-08-01T13:15:22;1.50;;;1.40;;
13685;SDS011;6915;48.296;8.874;2022-08-01T13:17:51;1.48;;;1.38;;
13685;SDS011;6915;48.296;8.874;2022-08-01T13:20:25;2.17;;;1.40;;
13685;SDS011;6915;48.296;8.874;2022-08-01T13:22:54;1.88;;;1.20;;
13685;SDS011;6915;48.296;8.874;2022-08-01T13:25:45;1.20;;;1.17;;
13685;SDS011;6915;48.296;8.874;2022-08-01T13:28:19;1.17;;;1.10;;
13685;SDS011;6915;48.296;8.874;2022-08-01T13:30:51;2.38;;;1.80;;
13685;SDS011;6915;48.296;8.874;2022-08-01T13:33:23;2.00;;;1.90;;
13685;SDS011;6915;48.296;8.874;2022-08-01T13:35:53;2.13;;;2.03;;
13685;SDS011;6915;48.296;8.874;2022-08-01T13:38:21;3.38;;;2.55;;
13685;SDS011;6915;48.296;8.874;2022-08-01T13:41:09;3.22;;;2.30;;
13685;SDS011;6915;48.296;8.874;2022-08-01T13:43:36;2.35;;;2.20;;
13685;SDS011;6915;48.296;8.874;2022-08-01T13:46:03;4.22;;;2.53;;
13685;SDS011;6915;48.296;8.874;2022-08-01T13:48:30;2.13;;;2.03;;
13685;SDS011;6915;48.296;8.874;2022-08-01T13:50:59;2.13;;;2.03;;
13685;SDS011;6915;48.296;8.874;2022-08-01T13:53:27;2.28;;;2.00;;
13685;SDS011;6915;48.296;8.874;2022-08-01T13:55:54;2.75;;;2.03;;
13685;SDS011;6915;48.296;8.874;2022-08-01T13:58:21;2.10;;;2.00;;
13685;SDS011;6915;48.296;8.874;2022-08-01T14:00:48;1.95;;;1.85;;
13685;SDS011;6915;48.296;8.874;2022-08-01T14:03:15;1.73;;;1.63;;
13685;SDS011;6915;48.296;8.874;2022-08-01T14:05:43;1.58;;;1.48;;
13685;SDS011;6915;48.296;8.874;2022-08-01T14:08:11;1.58;;;1.42;;
13685;SDS011;6915;48.296;8.874;2022-08-01T14:10:38;1.50;;;1.40;;
13685;SDS011;6915;48.296;8.874;2022-08-01T14:13:05;2.15;;;1.60;;
13685;SDS011;6915;48.296;8.874;2022-08-01T14:15:32;1.52;;;1.42;;
13685;SDS011;6915;48.296;8.874;2022-08-01T14:17:59;1.30;;;1.20;;
13685;SDS011;6915;48.296;8.874;2022-08-01T14:20:26;2.40;;;1.30;;
13685;SDS011;6915;48.296;8.874;2022-08-01T14:22:54;1.55;;;1.45;;
13685;SDS011;6915;48.296;8.874;2022-08-01T14:25:22;2.70;;;1.63;;
13685;SDS011;6915;48.296;8.874;2022-08-01T14:27:49;1.88;;;1.60;;
13685;SDS011;6915;48.296;8.874;2022-08-01T14:30:16;1.70;;;1.60;;
13685;SDS011;6915;48.296;8.874;2022-08-01T14:32:43;1.63;;;1.52;;
13685;SDS011;6915;48.296;8.874;2022-08-01T14:35:10;1.60;;;1.50;;
13685;SDS011;6915;48.296;8.874;2022-08-01T14:37:37;2.05;;;1.42;;
13685;SDS011;6915;48.296;8.874;2022-08-01T14:40:04;1.70;;;1.60;;
13685;SDS011;6915;48.296;8.874;2022-08-01T14:42:35;1.75;;;1.45;;
13685;SDS011;6915;48.296;8.874;2022-08-01T14:45:03;1.95;;;1.85;;
13685;SDS011;6915;48.296;8.874;2022-08-01T14:47:33;1.80;;;1.70;;
13685;SDS011;6915;48.296;8.874;2022-08-01T14:50:01;1.80;;;1.70;;
13685;SDS011;6915;48.296;8.874;2022-08-01T14:52:29;2.55;;;1.70;;
13685;SDS011;6915;48.296;8.874;2022-08-01T14:54:56;1.50;;;1.40;;
13685;SDS011;6915;48.296;8.874;2022-08-01T14:57:23;1.90;;;1.77;;
13685;SDS011;6915;48.296;8.874;2022-08-01T14:59:51;2.10;;;1.90;;
13685;SDS011;6915;48.296;8.874;2022-08-01T15:02:18;2.35;;;2.08;;
13685;SDS011;6915;48.296;8.874;2022-08-01T15:04:46;2.45;;;1.90;;
13685;SDS011;6915;48.296;8.874;2022-08-01T15:07:14;4.82;;;2.10;;
13685;SDS011;6915;48.296;8.874;2022-08-01T15:09:41;4.05;;;2.17;;
13685;SDS011;6915;48.296;8.874;2022-08-01T15:12:09;3.13;;;2.05;;
13685;SDS011;6915;48.296;8.874;2022-08-01T15:14:37;2.10;;;2.00;;
13685;SDS011;6915;48.296;8.874;2022-08-01T15:17:15;2.17;;;1.85;;
13685;SDS011;6915;48.296;8.874;2022-08-01T15:19:42;3.45;;;1.88;;
13685;SDS011;6915;48.296;8.874;2022-08-01T15:22:09;1.90;;;1.80;;
13685;SDS011;6915;48.296;8.874;2022-08-01T15:24:37;2.25;;;2.05;;